createdAt,value
2022-12-17T00:04:22.294Z,40.37
2022-12-17T00:09:48.629Z,39.87
2022-12-17T00:15:10.765Z,40.00
2022-12-17T00:20:31.319Z,39.85
2022-12-17T00:25:51.866Z,40.20
2022-12-17T00:31:12.353Z,39.90
2022-12-17T00:36:32.809Z,40.00
2022-12-17T00:41:53.301Z,39.82
2022-12-17T00:47:13.665Z,39.83
2022-12-17T00:52:34.037Z,39.68
2022-12-17T00:57:54.314Z,39.78
2022-12-17T01:03:30.050Z,39.69
2022-12-17T01:08:50.417Z,39.80
2022-12-17T01:14:11.782Z,39.87
2022-12-17T01:19:32.298Z,39.69
2022-12-17T01:24:52.682Z,39.59
2022-12-17T01:30:16.889Z,39.93
2022-12-17T01:35:37.363Z,39.79
2022-12-17T01:40:57.805Z,39.61
2022-12-17T01:46:18.254Z,39.88
2022-12-17T01:51:39.046Z,39.42
2022-12-17T01:57:02.368Z,39.41
2022-12-17T02:02:22.748Z,39.34
2022-12-17T02:07:56.699Z,39.48
2022-12-17T02:13:27.470Z,39.58
2022-12-17T02:18:55.835Z,39.43
2022-12-17T02:25:12.106Z,39.47
2022-12-17T02:30:32.483Z,39.38
2022-12-17T02:36:06.948Z,39.39
2022-12-17T02:41:32.408Z,39.49
2022-12-17T02:46:53.537Z,39.19
2022-12-17T02:52:14.136Z,39.32
2022-12-17T02:57:34.461Z,39.33
2022-12-17T03:02:55.408Z,39.10
2022-12-17T03:08:16.402Z,39.19
2022-12-17T03:13:45.455Z,39.32
2022-12-17T03:19:05.818Z,39.34
2022-12-17T03:24:26.563Z,39.63
2022-12-17T03:29:46.869Z,39.42
2022-12-17T03:35:07.582Z,39.55
2022-12-17T03:40:28.432Z,39.29
2022-12-17T03:45:48.953Z,39.46
2022-12-17T03:51:10.991Z,39.07
2022-12-17T03:56:31.118Z,39.51
2022-12-17T04:01:51.628Z,39.22
2022-12-17T04:07:12.425Z,39.50
2022-12-17T04:12:33.109Z,39.48
2022-12-17T04:17:53.528Z,39.37
2022-12-17T04:23:27.176Z,39.38
2022-12-17T04:28:47.421Z,39.19
2022-12-17T04:34:08.096Z,39.40
2022-12-17T04:39:28.685Z,39.17
2022-12-17T04:44:49.176Z,39.10
2022-12-17T04:50:09.565Z,39.32
2022-12-17T04:55:30.143Z,39.31
2022-12-17T05:00:50.374Z,39.20
2022-12-17T05:06:10.888Z,39.08
2022-12-17T05:11:31.586Z,39.17
2022-12-17T05:16:52.466Z,39.27
2022-12-17T05:22:12.921Z,38.98
2022-12-17T05:27:33.402Z,39.27
2022-12-17T05:32:53.669Z,38.95
2022-12-17T05:38:14.507Z,39.40
2022-12-17T05:43:35.309Z,39.12
2022-12-17T05:48:55.908Z,39.34
2022-12-17T05:54:16.378Z,39.11
2022-12-17T05:59:37.193Z,39.13
2022-12-17T06:05:01.958Z,39.06
2022-12-17T06:10:23.233Z,39.47
2022-12-17T06:15:43.519Z,39.01
2022-12-17T06:21:04.800Z,39.31
2022-12-17T06:26:25.180Z,39.25
2022-12-17T06:31:46.015Z,39.19
2022-12-17T06:37:06.576Z,39.31
2022-12-17T06:42:27.047Z,39.16
2022-12-17T06:47:47.575Z,39.38
2022-12-17T06:53:20.236Z,39.33
2022-12-17T06:58:40.638Z,39.07
2022-12-17T07:04:01.316Z,39.18
2022-12-17T07:09:21.638Z,39.47
2022-12-17T07:14:42.000Z,39.56
2022-12-17T07:20:02.462Z,39.31
2022-12-17T07:25:22.903Z,39.33
2022-12-17T07:30:43.328Z,39.38
2022-12-17T07:36:04.116Z,39.42
2022-12-17T07:41:24.499Z,39.04
2022-12-17T07:46:44.690Z,38.89
2022-12-17T07:52:05.172Z,40.33
2022-12-17T07:57:25.675Z,40.01
2022-12-17T08:02:46.246Z,39.75
2022-12-17T08:08:07.220Z,39.38
2022-12-17T08:13:28.963Z,39.55
2022-12-17T08:18:50.074Z,39.23
2022-12-17T08:24:10.663Z,39.47
2022-12-17T08:29:31.050Z,39.16
2022-12-17T08:34:51.523Z,39.47
2022-12-17T08:40:11.918Z,39.27
2022-12-17T08:45:32.377Z,39.00
2022-12-17T08:50:52.855Z,39.08
2022-12-17T08:56:13.404Z,38.95
2022-12-17T09:01:34.161Z,39.26
2022-12-17T09:06:54.519Z,39.46
2022-12-17T09:12:15.215Z,39.24
2022-12-17T09:17:35.613Z,38.64
2022-12-17T09:22:56.229Z,38.10
2022-12-17T09:28:20.234Z,38.09
2022-12-17T09:33:40.790Z,36.95
2022-12-17T09:39:01.177Z,36.70
2022-12-17T09:44:32.350Z,36.67
2022-12-17T09:49:52.651Z,36.66
2022-12-17T09:55:12.823Z,36.41
2022-12-17T10:00:45.963Z,36.56
2022-12-17T10:06:08.763Z,36.59
2022-12-17T10:11:39.709Z,37.32
2022-12-17T10:17:12.064Z,36.89
2022-12-17T10:22:38.902Z,36.70
2022-12-17T10:28:00.009Z,36.90
2022-12-17T10:33:25.145Z,37.20
2022-12-17T10:38:50.006Z,37.35
2022-12-17T10:44:10.124Z,38.68
2022-12-17T10:49:42.823Z,39.51
2022-12-17T10:55:13.358Z,39.28
2022-12-17T11:00:49.482Z,38.66
2022-12-17T11:06:14.006Z,38.65
2022-12-17T11:11:35.178Z,38.39
2022-12-17T11:17:12.114Z,38.38
2022-12-17T11:23:13.244Z,38.13
2022-12-17T11:28:42.108Z,37.78
2022-12-17T11:34:17.307Z,37.77
2022-12-17T11:39:49.188Z,37.45
2022-12-17T11:45:18.782Z,37.32
2022-12-17T11:51:08.770Z,37.45
2022-12-17T11:56:53.916Z,37.44
2022-12-17T12:02:20.462Z,37.48
2022-12-17T12:08:14.387Z,37.01
2022-12-17T12:13:54.646Z,36.60
2022-12-17T12:19:42.682Z,36.92
2022-12-17T12:25:07.982Z,36.54
2022-12-17T12:30:34.421Z,36.24
2022-12-17T12:35:56.927Z,36.32
2022-12-17T12:41:38.081Z,36.53
2022-12-17T12:47:22.316Z,36.27
2022-12-17T12:52:45.106Z,36.93
2022-12-17T12:58:18.009Z,36.51
2022-12-17T13:03:39.962Z,36.47
2022-12-17T13:08:42.688Z,36.21
2022-12-17T13:13:56.289Z,36.21
2022-12-17T13:19:03.790Z,36.25
2022-12-17T13:24:22.924Z,37.45
2022-12-17T13:29:38.942Z,37.40
2022-12-17T13:34:56.162Z,36.74
2022-12-17T13:40:31.672Z,36.67
2022-12-17T13:45:38.695Z,36.67
2022-12-17T13:50:40.506Z,36.29
2022-12-17T13:55:50.549Z,36.28
2022-12-17T14:01:03.697Z,36.23
2022-12-17T14:06:09.909Z,36.15
2022-12-17T14:11:31.190Z,36.40
2022-12-17T14:16:33.302Z,37.25
2022-12-17T14:21:37.483Z,39.58
2022-12-17T14:26:53.115Z,39.79
2022-12-17T14:32:16.938Z,39.98
2022-12-17T14:37:23.761Z,40.16
2022-12-17T14:42:26.865Z,39.89
2022-12-17T14:47:32.835Z,39.52
2022-12-17T14:52:47.595Z,39.21
2022-12-17T14:57:51.256Z,39.06
2022-12-17T15:02:55.541Z,39.61
2022-12-17T15:07:57.639Z,40.45
2022-12-17T15:12:59.666Z,40.35
2022-12-17T15:18:01.698Z,40.12
2022-12-17T15:23:03.647Z,39.85
2022-12-17T15:28:05.999Z,39.83
2022-12-17T15:33:09.261Z,39.64
2022-12-17T15:38:12.705Z,39.39
2022-12-17T15:43:16.040Z,39.29
2022-12-17T15:48:20.698Z,39.34
2022-12-17T15:53:22.523Z,39.83
2022-12-17T15:58:24.713Z,40.33
2022-12-17T16:03:26.771Z,40.08
2022-12-17T16:08:28.862Z,40.67
2022-12-17T16:13:30.681Z,40.40
2022-12-17T16:18:32.914Z,39.92
2022-12-17T16:23:35.068Z,39.80
2022-12-17T16:28:37.106Z,39.54
2022-12-17T16:33:41.098Z,38.08
2022-12-17T16:38:51.687Z,37.91
2022-12-17T16:43:54.056Z,37.45
2022-12-17T16:48:58.219Z,37.40
2022-12-17T16:54:03.895Z,37.48
2022-12-17T16:59:07.996Z,37.14
2022-12-17T17:04:10.066Z,37.13
2022-12-17T17:09:12.890Z,37.06
2022-12-17T17:14:14.662Z,37.00
2022-12-17T17:19:16.779Z,36.91
2022-12-17T17:24:22.092Z,36.95
2022-12-17T17:29:24.610Z,36.82
2022-12-17T17:34:26.737Z,36.64
2022-12-17T17:39:32.124Z,36.61
2022-12-17T17:44:34.226Z,36.69
2022-12-17T17:49:36.183Z,36.48
2022-12-17T17:54:39.984Z,36.61
2022-12-17T17:59:42.062Z,36.72
2022-12-17T18:04:44.066Z,36.50
2022-12-17T18:09:46.603Z,36.15
2022-12-17T18:15:12.619Z,36.19
2022-12-17T18:20:10.975Z,36.16
2022-12-17T18:25:13.172Z,36.06
2022-12-17T18:30:16.658Z,35.99
2022-12-17T18:35:18.505Z,36.28
2022-12-17T18:40:20.333Z,35.71
2022-12-17T18:45:22.572Z,36.13
2022-12-17T18:50:24.449Z,35.67
2022-12-17T18:55:26.401Z,35.95
2022-12-17T19:00:28.618Z,35.79
2022-12-17T19:05:31.161Z,35.98
2022-12-17T19:10:35.387Z,35.95
2022-12-17T19:15:37.602Z,36.19
2022-12-17T19:20:39.739Z,36.01
2022-12-17T19:25:42.016Z,36.09
2022-12-17T19:30:44.281Z,36.21
2022-12-17T19:35:46.176Z,36.15
2022-12-17T19:40:52.497Z,36.13
2022-12-17T19:46:02.006Z,35.64
2022-12-17T19:51:05.290Z,35.60
2022-12-17T19:56:15.701Z,35.95
2022-12-17T20:01:20.896Z,36.04
2022-12-17T20:06:25.833Z,35.78
2022-12-17T20:11:34.829Z,35.52
2022-12-17T20:16:39.867Z,35.94
2022-12-17T20:21:42.345Z,35.72
2022-12-17T20:26:46.228Z,35.82
2022-12-17T20:31:49.912Z,35.63
2022-12-17T20:36:53.542Z,35.76
2022-12-17T20:41:56.243Z,35.66
2022-12-17T20:46:58.369Z,35.51
2022-12-17T20:52:00.348Z,35.51
2022-12-17T20:57:02.267Z,35.89
2022-12-17T21:02:04.449Z,35.65
2022-12-17T21:07:06.734Z,35.80
2022-12-17T21:12:09.899Z,35.83
2022-12-17T21:17:12.036Z,35.75
2022-12-17T21:22:13.942Z,35.61
2022-12-17T21:27:17.508Z,35.56
2022-12-17T21:32:19.376Z,35.60
2022-12-17T21:37:21.256Z,35.76
2022-12-17T21:42:42.654Z,35.63
2022-12-17T21:47:45.237Z,35.76
2022-12-17T21:52:47.251Z,35.62
2022-12-17T21:57:49.223Z,35.62
2022-12-17T22:02:51.332Z,36.01
2022-12-17T22:07:53.314Z,35.85
2022-12-17T22:13:14.414Z,35.59
2022-12-17T22:18:16.381Z,35.80
2022-12-17T22:23:18.422Z,35.75
2022-12-17T22:28:20.846Z,36.08
2022-12-17T22:33:58.623Z,35.79
2022-12-17T22:43:59.789Z,35.94
2022-12-17T22:44:43.672Z,35.76
2022-12-17T22:49:28.965Z,36.02
2022-12-17T22:54:30.987Z,35.73
2022-12-17T22:59:33.680Z,35.64
2022-12-17T23:04:35.478Z,35.76
2022-12-17T23:09:37.315Z,35.96
2022-12-17T23:14:39.279Z,35.89
2022-12-17T23:19:41.242Z,35.79
2022-12-17T23:24:43.025Z,35.91
2022-12-17T23:29:44.844Z,35.73
2022-12-17T23:34:46.574Z,35.86
2022-12-17T23:39:48.350Z,35.76
2022-12-17T23:44:50.348Z,35.81
2022-12-17T23:49:52.414Z,36.11
2022-12-17T23:54:54.350Z,35.94
2022-12-17T23:59:56.286Z,36.06
